Data for 08/24/2017

Time Sea-Level Adjusted Pressure Absolute Pressure Temperature Relative Humidity Dew Point   
(mb) (inHg) (mb) (inHg) (C) (F) (%) (C) (F)
00:05 1019 30.09 848 25.04 19 66.2 33 2.7 36.9
00:10 1019 30.09 848 25.04 19.3 66.8 33 2.9 37.2
00:15 1019 30.09 848 25.04 19.4 66.8 33 3 37.3
00:20 1019 30.09 848 25.04 19.2 66.6 34 3.3 37.9
00:25 1019 30.09 848 25.04 19 66.2 35 3.3 38
00:30 1019 30.09 848 25.04 18.8 65.8 35 3 37.5
00:35 1019 30.09 848 25.04 18.7 65.7 35 3 37.4
00:40 1019 30.09 848 25.04 18.8 65.8 33 2.5 36.5
00:45 1019 30.09 848 25.04 19.1 66.4 33 2.8 37
00:50 1019 30.09 848 25.04 19.2 66.5 33 2.6 36.8
00:55 1019 30.09 848 25.04 19.3 66.7 33 2.8 37.1
01:00 1019 30.09 848 25.04 19.3 66.7 33 2.9 37.1
01:05 1019 30.09 848 25.04 19.3 66.8 33 2.9 37.2
01:10 1019 30.09 848 25.04 19.2 66.6 34 3 37.5
01:15 1019 30.09 848 25.04 19.1 66.3 34 3 37.4
01:20 1019 30.09 848 25.04 19.1 66.4 34 3.1 37.6
01:25 1019 30.09 848 25.04 19.1 66.4 34 3.2 37.8
01:30 1019 30.09 848 25.04 19.2 66.6 35 3.7 38.7
01:35 1019 30.09 848 25.04 18.6 65.5 37 3.9 39
01:40 1019 30.09 848 25.04 18.3 65 37 3.7 38.6
01:45 1019 30.09 848 25.04 18.4 65.1 38 3.9 38.9
01:50 1019 30.09 848 25.04 18.4 65 38 3.8 38.9
01:55 1019 30.09 848 25.04 18.5 65.4 37 3.9 39
02:00 1019 30.09 848 25.04 18.4 65.2 38 4 39.2
02:05 1019 30.09 848 25.04 18.3 64.9 39 4.1 39.4
02:10 1019 30.09 848 25.04 18.1 64.5 40 4.5 40.1
02:15 1018 30.06 848 25.04 17.7 63.9 41 4.4 39.9
02:20 1018 30.06 848 25.04 17.7 63.9 41 4.4 40
02:25 1018 30.06 848 25.04 17.8 64.1 41 4.5 40.1
02:30 1018 30.06 848 25.04 17.9 64.1 40 4.2 39.5
02:35 1018 30.06 848 25.04 18 64.5 40 4.5 40
02:40 1018 30.06 848 25.04 18 64.5 41 4.5 40.2
02:45 1018 30.06 848 25.04 18.1 64.7 40 4.3 39.7
02:50 1018 30.06 848 25.04 18.1 64.5 42 5.1 41.2
02:55 1018 30.06 848 25.04 17.7 63.9 43 5.1 41.1
03:00 1018 30.06 848 25.04 17.7 63.9 45 5.6 42.2
03:05 1018 30.06 848 25.04 17.3 63.2 46 5.7 42.2
03:10 1018 30.06 848 25.04 17.1 62.8 46 5.5 41.9
03:15 1018 30.06 848 25.04 17.1 62.7 46 5.6 42
03:20 1018 30.06 848 25.04 17.1 62.7 48 6.2 43.1
03:25 1018 30.06 848 25.04 16.6 61.8 50 6.3 43.4
03:30 1018 30.06 848 25.04 16.3 61.4 50 5.9 42.5
03:35 1018 30.06 848 25.04 16.6 61.9 49 6 42.7
03:40 1018 30.06 848 25.04 17 62.5 47 5.5 41.9
03:45 1018 30.06 848 25.04 17.5 63.4 45 5.5 41.8
03:50 1018 30.06 848 25.04 17.7 63.8 45 5.6 42.1
03:55 1018 30.06 848 25.04 17.7 63.8 46 6.1 42.9
04:00 1018 30.06 848 25.04 17.6 63.6 46 6.1 42.9
04:05 1018 30.06 848 25.04 17.1 62.9 50 6.7 44.1
04:10 1018 30.06 848 25.04 16.5 61.7 51 6.4 43.5
04:15 1018 30.06 848 25.04 16.4 61.5 51 6.4 43.6
04:20 1018 30.06 848 25.04 16.7 62.1 47 5.5 41.9
04:25 1018 30.06 848 25.04 17.3 63.1 44 5.2 41.3
02:10 1019 30.09 848 25.04 18.1 64.5 40 4.5 40.1
02:15 1018 30.06 848 25.04 17.7 63.9 41 4.4 39.9
02:20 1018 30.06 848 25.04 17.7 63.9 41 4.4 40
02:25 1018 30.06 848 25.04 17.8 64.1 41 4.5 40.1
02:30 1018 30.06 848 25.04 17.9 64.1 40 4.2 39.5
02:35 1018 30.06 848 25.04 18 64.5 40 4.5 40
02:40 1018 30.06 848 25.04 18 64.5 41 4.5 40.2
02:45 1018 30.06 848 25.04 18.1 64.7 40 4.3 39.7
02:50 1018 30.06 848 25.04 18.1 64.5 42 5.1 41.2
02:55 1018 30.06 848 25.04 17.7 63.9 43 5.1 41.1
03:00 1018 30.06 848 25.04 17.7 63.9 45 5.6 42.2
03:05 1018 30.06 848 25.04 17.3 63.2 46 5.7 42.2
03:10 1018 30.06 848 25.04 17.1 62.8 46 5.5 41.9
03:15 1018 30.06 848 25.04 17.1 62.7 46 5.6 42
03:20 1018 30.06 848 25.04 17.1 62.7 48 6.2 43.1
03:25 1018 30.06 848 25.04 16.6 61.8 50 6.3 43.4
03:30 1018 30.06 848 25.04 16.3 61.4 50 5.9 42.5
03:35 1018 30.06 848 25.04 16.6 61.9 49 6 42.7
03:40 1018 30.06 848 25.04 17 62.5 47 5.5 41.9
03:45 1018 30.06 848 25.04 17.5 63.4 45 5.5 41.8
03:50 1018 30.06 848 25.04 17.7 63.8 45 5.6 42.1
03:55 1018 30.06 848 25.04 17.7 63.8 46 6.1 42.9
04:00 1018 30.06 848 25.04 17.6 63.6 46 6.1 42.9
04:05 1018 30.06 848 25.04 17.1 62.9 50 6.7 44.1
04:10 1018 30.06 848 25.04 16.5 61.7 51 6.4 43.5
04:15 1018 30.06 848 25.04 16.4 61.5 51 6.4 43.6
04:20 1018 30.06 848 25.04 16.7 62.1 47 5.5 41.9
04:25 1018 30.06 848 25.04 17.3 63.1 44 5.2 41.3
04:30 1018 30.06 848 25.04 17.4 63.2 45 5.4 41.7
04:35 1018 30.06 848 25.04 17.4 63.2 44 5.2 41.4
04:40 1018 30.06 848 25.04 17.3 63.2 46 5.7 42.3
04:45 1018 30.06 848 25.04 17.1 62.8 47 5.8 42.4
04:50 1018 30.06 848 25.04 17.1 62.8 47 5.7 42.2
04:55 1018 30.06 847 25.01 17.3 63.1 44 5.1 41.1
05:00 1018 30.06 847 25.01 17.6 63.7 44 5.5 41.9
05:05 1018 30.06 847 25.01 17.6 63.7 44 5.4 41.7
05:10 1018 30.06 847 25.01 17.6 63.8 44 5.5 41.8
05:15 1018 30.06 848 25.04 17.7 63.9 43 5.2 41.4
05:20 1018 30.06 848 25.04 17.9 64.2 43 5.2 41.4
05:25 1018 30.06 848 25.04 17.9 64.3 43 5.3 41.5
05:30 1018 30.06 848 25.04 17.9 64.1 45 5.9 42.5
05:35 1018 30.06 848 25.04 17.8 64.1 42 5 41
05:40 1018 30.06 848 25.04 18.1 64.7 44 6 42.7
05:45 1018 30.06 848 25.04 17.6 63.7 43 5 41
05:50 1018 30.06 848 25.04 18.4 65.2 38 4 39.3
05:55 1018 30.06 848 25.04 19 66.1 39 4.9 40.8
06:00 1018 30.06 847 25.01 18.8 65.9 39 4.6 40.3
06:05 1018 30.06 847 25.01 19.1 66.3 40 5.4 41.8
06:10 1018 30.06 848 25.04 18 64.4 49 7.4 45.3
06:15 1018 30.06 848 25.04 17.2 62.9 48 6.2 43.2
06:20 1018 30.06 848 25.04 17.3 63.2 46 5.8 42.5
06:25 1018 30.06 848 25.04 17.6 63.6 46 5.9 42.6
06:30 1018 30.06 848 25.04 17.6 63.7 46 5.9 42.7
06:35 1018 30.06 848 25.04 17.6 63.7 47 6.2 43.1
06:40 1018 30.06 848 25.04 17.6 63.6 46 5.8 42.5
06:45 1019 30.09 848 25.04 17.4 63.4 46 5.9 42.6
06:50 1018 30.06 848 25.04 17.6 63.6 44 5.2 41.4
06:55 1018 30.06 848 25.04 17.9 64.3 42 5.1 41.2
07:00 1019 30.09 848 25.04 18 64.4 43 5.4 41.8
07:05 1019 30.09 848 25.04 18 64.4 44 5.9 42.6
07:10 1019 30.09 848 25.04 17.9 64.2 43 5.3 41.5
07:15 1018 30.06 848 25.04 18.1 64.6 42 5 41
07:20 1019 30.09 848 25.04 18.4 65.1 46 6.6 43.9
07:25 1019 30.09 848 25.04 17.8 64.1 47 6.4 43.5
07:30 1019 30.09 848 25.04 18.1 64.5 43 5.4 41.7
07:35 1019 30.09 848 25.04 18.1 64.5 41 4.8 40.7
07:40 1019 30.09 848 25.04 18.7 65.6 46 6.9 44.4
07:45 1018 30.06 848 25.04 19.1 66.3 43 6.2 43.1
07:50 1018 30.06 848 25.04 18.7 65.6 40 4.9 40.9
07:55 1018 30.06 848 25.04 19.1 66.4 40 5.5 41.9
08:00 1018 30.06 848 25.04 19 66.2 43 6.3 43.3
08:05 1018 30.06 848 25.04 18.9 66 40 5.3 41.5
08:10 1018 30.06 848 25.04 19 66.2 44 6.7 44.1
08:15 1018 30.06 848 25.04 19 66.1 42 5.8 42.5
08:20 1018 30.06 848 25.04 18.9 66 42 5.9 42.7
08:25 1018 30.06 848 25.04 18.9 66.1 44 6.6 43.9
08:30 1018 30.06 848 25.04 18.8 65.8 47 7.4 45.3
08:35 1018 30.06 848 25.04 18.8 65.8 47 7.2 45
08:40 1018 30.06 848 25.04 19 66.2 47 7.7 45.8
08:45 1018 30.06 848 25.04 19.3 66.7 43 6.7 44
08:50 1019 30.09 848 25.04 19.4 66.9 42 6.3 43.3
08:55 1018 30.06 848 25.04 19.6 67.2 42 6.5 43.7
09:00 1018 30.06 848 25.04 20 67.9 39 5.7 42.3
09:05 1018 30.06 848 25.04 20.3 68.6 41 6.8 44.2
09:10 1018 30.06 848 25.04 20.6 69.1 41 7.2 44.9
09:15 1018 30.06 848 25.04 20.8 69.5 40 6.9 44.4
09:20 1018 30.06 848 25.04 20.9 69.6 40 7 44.7
09:25 1018 30.06 848 25.04 21 69.8 37 6 42.8
09:30 1018 30.06 848 25.04 21.7 71 34 5.2 41.3
09:35 1018 30.06 848 25.04 22.5 72.4 33 5.7 42.3
09:40 1018 30.06 848 25.04 23.4 74.2 32 5.9 42.6
09:45 1018 30.06 848 25.04 24.7 76.5 28 5.2 41.4
09:50 1018 30.06 848 25.04 24.9 76.8 30 6.4 43.6
09:55 1018 30.06 847 25.01 24.9 76.9 29 5.7 42.3
10:00 1018 30.06 847 25.01 24.6 76.3 30 6.2 43.1
10:05 1018 30.06 847 25.01 24 75.2 31 6.1 43
10:10 1018 30.06 848 25.04 23.8 74.9 31 5.8 42.5
10:15 1018 30.06 848 25.04 23.9 75 31 6.1 43
10:20 1018 30.06 847 25.01 23.8 74.8 31 5.9 42.6
10:25 1018 30.06 847 25.01 23.9 75 30 5.6 42.1
10:30 1018 30.06 847 25.01 24.2 75.5 30 5.9 42.7
10:35 1018 30.06 847 25.01 24.2 75.6 30 5.9 42.7
10:40 1018 30.06 847 25.01 24.8 76.6 29 6 42.8
10:45 1018 30.06 847 25.01 24.8 76.7 29 5.9 42.7
10:50 1018 30.06 847 25.01 24.8 76.7 28 5.6 42
10:55 1018 30.06 847 25.01 25.6 78 27 5.4 41.8
11:00 1018 30.06 847 25.01 25.6 78.1 27 5.4 41.7
11:05 1018 30.06 847 25.01 25.9 78.6 27 5.6 42.1
11:10 1018 30.06 847 25.01 26.2 79.2 26 5.5 42
11:15 1018 30.06 847 25.01 26.6 79.8 26 5.5 42
11:20 1018 30.06 847 25.01 26.6 79.9 26 5.8 42.4
11:25 1018 30.06 847 25.01 26.5 79.8 25 4.9 40.9
11:30 1018 30.06 847 25.01 27.1 80.8 24 5.2 41.3
11:35 1018 30.06 847 25.01 27 80.5 26 6.3 43.3
11:40 1018 30.06 847 25.01 26.3 79.3 27 6.1 42.9
11:45 1017 30.03 847 25.01 25.7 78.3 29 6.5 43.7
11:50 1017 30.03 847 25.01 26 78.8 25 5 41
11:55 1017 30.03 847 25.01 27.1 80.7 25 5.4 41.7
12:00 1017 30.03 847 25.01 27.5 81.4 24 5.5 41.9
12:05 1017 30.03 846 24.98 26.9 80.4 25 5.4 41.7
12:10 1017 30.03 846 24.98 27.5 81.4 24 5.2 41.3
12:15 1017 30.03 846 24.98 27.5 81.4 22 4.3 39.8
12:20 1017 30.03 846 24.98 28.1 82.6 23 5.1 41.2
12:25 1017 30.03 846 24.98 27.8 82.1 23 5.1 41.1
12:30 1017 30.03 846 24.98 28.1 82.5 21 4.3 39.7
12:35 1017 30.03 846 24.98 28.3 82.9 22 5.1 41.2
12:40 1017 30.03 846 24.98 27.9 82.3 21 4.1 39.5
12:45 1017 30.03 846 24.98 27.7 81.8 23 5.2 41.3
12:50 1017 30.03 846 24.98 26.8 80.2 24 5.1 41.1
12:55 1017 30.03 846 24.98 26.5 79.7 27 6.3 43.4
13:00 1017 30.03 846 24.98 25.8 78.4 36 9.8 49.7
13:05 1017 30.03 846 24.98 24.1 75.4 41 10.3 50.6
13:10 1017 30.03 846 24.98 23.8 74.8 41 9.9 49.8
13:15 1017 30.03 846 24.98 24.2 75.5 44 11.5 52.6
13:20 1017 30.03 846 24.98 24.4 75.9 41 10.6 51.1
13:25 1017 30.03 846 24.98 24.6 76.3 38 9.5 49.2
13:30 1017 30.03 846 24.98 25.1 77.2 35 8.9 48
13:35 1017 30.03 846 24.98 24.9 76.8 36 9 48.1
13:40 1017 30.03 846 24.98 23.9 75 37 8.4 47.1
13:45 1017 30.03 846 24.98 23.5 74.3 38 8.6 47.5
13:50 1017 30.03 846 24.98 23.6 74.6 35 7.4 45.4
13:55 1017 30.03 847 25.01 22.9 73.3 38 8.2 46.8
14:00 1017 30.03 847 25.01 21.8 71.3 47 10.3 50.5
14:05 1018 30.06 847 25.01 20.5 68.9 54 11.2 52.1
14:10 1017 30.03 847 25.01 19.8 67.7 59 11.6 52.9
14:15 1017 30.03 847 25.01 19.6 67.3 58 11.2 52.1
14:20 1017 30.03 846 24.98 19.9 67.9 55 10.7 51.2
14:25 1017 30.03 846 24.98 20.4 68.8 50 9.8 49.6
14:30 1017 30.03 846 24.98 20.2 68.4 54 10.6 51.1
14:35 1017 30.03 847 25.01 20.2 68.4 54 10.8 51.5
14:40 1017 30.03 847 25.01 20.2 68.3 50 9.7 49.4
14:45 1017 30.03 847 25.01 20.2 68.3 54 10.6 51.2
14:50 1017 30.03 847 25.01 20.3 68.5 49 9.5 49
14:55 1017 30.03 847 25.01 20.4 68.7 54 10.9 51.5
15:00 1017 30.03 847 25.01 20.5 68.8 52 10.5 50.9
15:05 1017 30.03 846 24.98 20.4 68.7 50 9.7 49.5
15:10 1017 30.03 846 24.98 20.9 69.6 50 10.1 50.2
15:15 1017 30.03 846 24.98 21.3 70.4 53 11.4 52.5
15:20 1017 30.03 846 24.98 21.1 70 53 11.3 52.4
15:25 1017 30.03 846 24.98 21.4 70.6 50 10.7 51.3
15:30 1017 30.03 846 24.98 22.1 71.7 44 9.5 49
15:35 1017 30.03 846 24.98 22.5 72.6 41 8.6 47.6
15:40 1017 30.03 846 24.98 23 73.4 38 8.2 46.8
15:45 1017 30.03 846 24.98 23.2 73.8 36 7.7 45.9
15:50 1017 30.03 846 24.98 23.2 73.8 36 7.7 45.9
15:55 1017 30.03 846 24.98 23.3 73.9 37 7.8 46
16:00 1016 30 846 24.98 23.3 74 36 7.8 46
16:05 1016 30 846 24.98 23 73.3 37 7.7 45.8
16:10 1016 30 846 24.98 23 73.3 36 7.4 45.4
16:15 1016 30 846 24.98 23.1 73.6 37 7.7 45.9
16:20 1016 30 846 24.98 23.3 74 36 7.8 46
16:25 1017 30.03 846 24.98 23.5 74.3 40 9.3 48.7
16:30 1017 30.03 846 24.98 23.6 74.4 36 7.7 45.8
16:35 1017 30.03 846 24.98 23.4 74.2 37 7.9 46.3
16:40 1017 30.03 846 24.98 23.2 73.8 41 9.4 49
16:45 1017 30.03 846 24.98 22.4 72.2 42 9.2 48.5
16:50 1017 30.03 846 24.98 21.3 70.3 44 8.7 47.6
16:55 1017 30.03 846 24.98 21 69.7 43 8.2 46.8
17:00 1017 30.03 846 24.98 21.2 70.2 42 7.8 46.1
17:05 1017 30.03 846 24.98 21.4 70.5 41 7.6 45.8
17:10 1017 30.03 846 24.98 21.4 70.4 42 8.2 46.7
17:15 1017 30.03 846 24.98 21.4 70.5 41 7.8 46.1
17:20 1017 30.03 846 24.98 21.9 71.4 39 7.5 45.5
17:25 1017 30.03 846 24.98 22.3 72.1 38 7.6 45.7
17:30 1017 30.03 846 24.98 22.6 72.6 39 8 46.4
17:35 1017 30.03 846 24.98 22.1 71.8 41 8.4 47.1
17:40 1017 30.03 846 24.98 21.9 71.5 41 8.1 46.6
17:45 1017 30.03 846 24.98 22.1 71.7 39 7.8 46
17:50 1017 30.03 846 24.98 21.8 71.3 42 8.6 47.5
17:55 1017 30.03 846 24.98 21.9 71.4 37 6.9 44.4
18:00 1017 30.03 846 24.98 22.1 71.7 37 7 44.6
18:05 1017 30.03 846 24.98 22 71.5 40 7.9 46.3
18:10 1017 30.03 846 24.98 21.9 71.5 39 7.7 45.8
18:15 1017 30.03 846 24.98 22.4 72.3 38 7.4 45.2
18:20 1017 30.03 846 24.98 22.6 72.7 38 7.9 46.2
18:25 1017 30.03 846 24.98 22.5 72.6 39 7.9 46.2
18:30 1017 30.03 846 24.98 22.7 72.9 36 7.1 44.9
18:35 1017 30.03 846 24.98 22.9 73.2 36 7.3 45.1
18:40 1017 30.03 846 24.98 23 73.3 36 7.3 45.2
18:45 1017 30.03 846 24.98 23 73.4 37 7.8 46
18:50 1017 30.03 846 24.98 22.9 73.2 39 8.2 46.8
18:55 1017 30.03 846 24.98 22.8 73 41 9 48.2
19:00 1017 30.03 846 24.98 22.5 72.5 41 8.8 47.9
19:05 1017 30.03 846 24.98 22.4 72.3 43 9.3 48.8
19:10 1017 30.03 846 24.98 22.4 72.3 45 10 50.1
19:15 1017 30.03 846 24.98 22.3 72.2 43 9.4 48.9
19:20 1017 30.03 846 24.98 22.3 72.1 43 9.4 48.9
19:25 1017 30.03 846 24.98 22.3 72.1 41 8.7 47.7
19:30 1017 30.03 846 24.98 22.2 72 42 8.7 47.7
19:35 1017 30.03 846 24.98 22.1 71.9 42 8.9 48
19:40 1017 30.03 846 24.98 22 71.6 43 9 48.3
19:45 1017 30.03 846 24.98 21.9 71.5 44 9.2 48.6
19:50 1017 30.03 846 24.98 22 71.5 45 9.7 49.4
19:55 1017 30.03 846 24.98 21.8 71.3 47 10.1 50.2
20:00 1017 30.03 846 24.98 21.5 70.8 48 10.2 50.4
20:05 1017 30.03 846 24.98 21.1 69.9 49 10 50
20:10 1017 30.03 846 24.98 20.6 69 49 9.7 49.4
20:15 1017 30.03 846 24.98 20.3 68.6 50 9.6 49.3
20:20 1017 30.03 846 24.98 20.1 68.1 51 9.7 49.5
20:25 1017 30.03 846 24.98 19.8 67.7 51 9.5 49
20:30 1017 30.03 846 24.98 19.8 67.6 51 9.3 48.8
20:35 1017 30.03 846 24.98 19.7 67.4 51 9.2 48.6
20:40 1017 30.03 846 24.98 19.5 67.1 52 9.4 49
20:45 1017 30.03 846 24.98 19.2 66.5 52 9.1 48.5
20:50 1017 30.03 846 24.98 18.9 66 53 9.3 48.7
20:55 1017 30.03 846 24.98 18.7 65.7 54 9.3 48.7
21:00 1017 30.03 846 24.98 18.6 65.4 55 9.4 48.9
21:05 1017 30.03 846 24.98 18.4 65.2 55 9.4 48.8
21:10 1017 30.03 846 24.98 18.2 64.8 56 9.4 49
21:15 1017 30.03 846 24.98 18 64.5 57 9.5 49.2
21:20 1017 30.03 846 24.98 17.9 64.1 58 9.5 49.1
21:25 1017 30.03 846 24.98 17.7 63.9 58 9.4 49
21:30 1017 30.03 846 24.98 17.7 63.9 56 9 48.3
21:35 1017 30.03 846 24.98 17.7 63.8 58 9.4 49
21:40 1017 30.03 846 24.98 17.4 63.3 58 9.1 48.3
21:45 1017 30.03 846 24.98 17.4 63.2 57 8.9 48.1
21:50 1017 30.03 846 24.98 17.4 63.4 56 8.6 47.5
21:55 1017 30.03 847 25.01 17.5 63.5 55 8.6 47.4
22:00 1017 30.03 847 25.01 17.6 63.6 56 8.8 47.8
22:05 1017 30.03 847 25.01 17.6 63.6 55 8.6 47.4
22:10 1017 30.03 847 25.01 17.5 63.5 56 8.6 47.6
22:15 1017 30.03 847 25.01 17.5 63.4 55 8.5 47.4
22:20 1017 30.03 847 25.01 17.5 63.5 55 8.5 47.4
22:25 1017 30.03 847 25.01 17.5 63.4 56 8.7 47.6
22:30 1017 30.03 847 25.01 17.4 63.3 56 8.5 47.4
22:35 1017 30.03 847 25.01 17.4 63.3 56 8.7 47.6
22:40 1018 30.06 847 25.01 17.2 63 57 8.7 47.6
22:45 1018 30.06 847 25.01 17 62.5 58 8.8 47.8
22:50 1018 30.06 847 25.01 16.8 62.3 58 8.6 47.5
22:55 1018 30.06 847 25.01 16.8 62.2 58 8.6 47.4
23:00 1018 30.06 847 25.01 16.8 62.3 57 8.4 47.1
23:05 1018 30.06 847 25.01 16.9 62.4 58 8.6 47.4
23:10 1018 30.06 847 25.01 16.7 62 60 8.9 48
23:15 1018 30.06 847 25.01 16.4 61.4 60 8.7 47.7
23:20 1018 30.06 847 25.01 16.4 61.5 59 8.4 47.1
23:25 1018 30.06 847 25.01 16.5 61.7 60 8.8 47.8
23:30 1019 30.09 848 25.04 16.5 61.7 53 7 44.6
23:35 1019 30.09 849 25.07 16.8 62.2 51 6.7 44
23:40 1020 30.12 849 25.07 16.9 62.3 51 6.8 44.2
23:45 1020 30.12 849 25.07 16.8 62.3 52 7 44.6
23:50 1020 30.12 849 25.07 16.6 61.9 56 8 46.3
23:55 1020 30.12 849 25.07 16 60.8 61 8.7 47.6
24:00 1020 30.12 849 25.07 15.5 59.9 64 8.7 47.7